Time,TemperatureF,DewpointF,PressureIn,WindDirection,WindDirectionDegrees,WindSpeedMPH,WindSpeedGustMPH,Humidity,HourlyPrecipIn,Conditions,Clouds,dailyrainin,SolarRadiationWatts/m^2,SoftwareType,DateUTC
2013-05-18 00:00:00,67.0,45.0,-100.00,SE,135,5.0,-999.0,45,-99.99,,,-99.99,0.000000,,2013-05-18 04:00:00,
2013-05-18 00:43:00,67.0,45.0,-100.00,SE,135,5.0,-999.0,45,-99.99,,,-99.99,0.000000,,2013-05-18 04:43:00,
2013-05-18 00:52:00,67.0,45.0,-100.00,SE,135,5.0,-999.0,45,-99.99,,,-99.99,0.000000,,2013-05-18 04:52:00,
2013-05-18 01:00:00,65.0,42.0,-100.00,SE,135,5.0,-999.0,41,-99.99,,,-99.99,0.000000,,2013-05-18 05:00:00,
2013-05-18 01:42:00,65.0,42.0,-100.00,SE,135,5.0,-999.0,41,-99.99,,,-99.99,0.000000,,2013-05-18 05:42:00,
2013-05-18 01:52:00,65.0,42.0,-100.00,SE,135,5.0,-999.0,41,-99.99,,,-99.99,0.000000,,2013-05-18 05:52:00,
2013-05-18 02:00:00,63.0,41.0,-100.00,ESE,112,7.0,-999.0,44,-99.99,,,-99.99,0.000000,,2013-05-18 06:00:00,
2013-05-18 02:42:00,63.0,41.0,-100.00,ESE,112,7.0,-999.0,44,-99.99,,,-99.99,0.000000,,2013-05-18 06:42:00,
2013-05-18 02:52:00,63.0,41.0,-100.00,ESE,112,7.0,-999.0,44,-99.99,,,-99.99,0.000000,,2013-05-18 06:52:00,
2013-05-18 03:00:00,60.0,41.0,-100.00,ESE,112,5.0,-999.0,49,-99.99,,,-99.99,0.000000,,2013-05-18 07:00:00,
2013-05-18 03:43:00,60.0,41.0,-100.00,ESE,112,5.0,-999.0,49,-99.99,,,-99.99,0.000000,,2013-05-18 07:43:00,
2013-05-18 03:52:00,60.0,41.0,-100.00,ESE,112,5.0,-999.0,49,-99.99,,,-99.99,0.000000,,2013-05-18 07:52:00,
2013-05-18 04:00:00,58.0,41.0,-100.00,ESE,112,3.0,-999.0,53,-99.99,,,-99.99,0.000000,,2013-05-18 08:00:00,
2013-05-18 04:42:00,58.0,41.0,-100.00,ESE,112,3.0,-999.0,53,-99.99,,,-99.99,0.000000,,2013-05-18 08:42:00,
2013-05-18 04:52:00,58.0,41.0,-100.00,ESE,112,3.0,-999.0,53,-99.99,,,-99.99,0.000000,,2013-05-18 08:52:00,
2013-05-18 05:00:00,55.0,42.0,-100.00,ESE,112,2.0,-999.0,59,-99.99,,,-99.99,0.000000,,2013-05-18 09:00:00,
2013-05-18 05:43:00,55.0,42.0,-100.00,ESE,112,2.0,-999.0,59,-99.99,,,-99.99,0.000000,,2013-05-18 09:43:00,
2013-05-18 05:53:00,55.0,42.0,-100.00,ESE,112,2.0,-999.0,59,-99.99,,,-99.99,0.000000,,2013-05-18 09:53:00,
2013-05-18 06:00:00,54.0,42.0,-100.00,ESE,112,2.0,-999.0,62,-99.99,,,-99.99,0.000000,,2013-05-18 10:00:00,
2013-05-18 06:42:00,54.0,42.0,-100.00,ESE,112,2.0,-999.0,62,-99.99,,,-99.99,0.000000,,2013-05-18 10:42:00,
2013-05-18 06:53:00,54.0,42.0,-100.00,ESE,112,2.0,-999.0,62,-99.99,,,-99.99,0.000000,,2013-05-18 10:53:00,
2013-05-18 07:00:00,54.0,41.0,-100.00,East,90,3.0,-999.0,63,-99.99,,,-99.99,11.600000,,2013-05-18 11:00:00,
2013-05-18 07:42:00,54.0,41.0,-100.00,East,90,3.0,-999.0,63,-99.99,,,-99.99,11.600000,,2013-05-18 11:42:00,
2013-05-18 07:52:00,54.0,41.0,-100.00,East,90,3.0,-999.0,63,-99.99,,,-99.99,11.600000,,2013-05-18 11:52:00,
2013-05-18 08:00:00,56.0,42.0,-100.00,ESE,112,4.0,-999.0,59,-99.99,,,-99.99,88.160004,,2013-05-18 12:00:00,
2013-05-18 08:42:00,56.0,42.0,-100.00,ESE,112,4.0,-999.0,59,-99.99,,,-99.99,88.160004,,2013-05-18 12:42:00,
2013-05-18 08:52:00,56.0,42.0,-100.00,ESE,112,4.0,-999.0,59,-99.99,,,-99.99,88.160004,,2013-05-18 12:52:00,
2013-05-18 09:00:00,59.0,44.0,-100.00,ESE,112,5.0,-999.0,56,-99.99,,,-99.99,233.160004,,2013-05-18 13:00:00,
2013-05-18 09:43:00,59.0,44.0,-100.00,ESE,112,5.0,-999.0,56,-99.99,,,-99.99,233.160004,,2013-05-18 13:43:00,
2013-05-18 09:53:00,59.0,44.0,-100.00,ESE,112,5.0,-999.0,56,-99.99,,,-99.99,233.160004,,2013-05-18 13:53:00,
2013-05-18 10:00:00,63.0,46.0,-100.00,SE,135,5.0,-999.0,53,-99.99,,,-99.99,392.079987,,2013-05-18 14:00:00,
2013-05-18 10:42:00,63.0,46.0,-100.00,SE,135,5.0,-999.0,53,-99.99,,,-99.99,392.079987,,2013-05-18 14:42:00,
2013-05-18 10:54:00,63.0,46.0,-100.00,SE,135,5.0,-999.0,53,-99.99,,,-99.99,392.079987,,2013-05-18 14:54:00,
2013-05-18 11:00:00,68.0,49.0,-100.00,SE,135,4.0,-999.0,49,-99.99,,,-99.99,559.119995,,2013-05-18 15:00:00,
2013-05-18 11:43:00,68.0,49.0,-100.00,SE,135,4.0,-999.0,49,-99.99,,,-99.99,559.119995,,2013-05-18 15:43:00,
2013-05-18 11:53:00,68.0,49.0,-100.00,SE,135,4.0,-999.0,49,-99.99,,,-99.99,559.119995,,2013-05-18 15:53:00,
2013-05-18 12:00:00,73.0,53.0,-100.00,SSE,157,4.0,-999.0,49,-99.99,,,-99.99,678.599976,,2013-05-18 16:00:00,
2013-05-18 12:42:00,73.0,53.0,-100.00,SSE,157,4.0,-999.0,49,-99.99,,,-99.99,678.599976,,2013-05-18 16:42:00,
2013-05-18 12:52:00,73.0,53.0,-100.00,SSE,157,4.0,-999.0,49,-99.99,,,-99.99,678.599976,,2013-05-18 16:52:00,
2013-05-18 13:00:00,76.0,55.0,-100.00,SE,135,3.0,-999.0,48,-99.99,,,-99.99,745.880005,,2013-05-18 17:00:00,
2013-05-18 13:42:00,76.0,55.0,-100.00,SE,135,3.0,-999.0,48,-99.99,,,-99.99,745.880005,,2013-05-18 17:42:00,
2013-05-18 13:52:00,76.0,55.0,-100.00,SE,135,3.0,-999.0,48,-99.99,,,-99.99,745.880005,,2013-05-18 17:52:00,
2013-05-18 14:00:00,78.0,56.0,-100.00,SE,135,4.0,-999.0,47,-99.99,,,-99.99,736.599976,,2013-05-18 18:00:00,
2013-05-18 14:42:00,78.0,56.0,-100.00,SE,135,4.0,-999.0,47,-99.99,,,-99.99,736.599976,,2013-05-18 18:42:00,
2013-05-18 14:52:00,78.0,56.0,-100.00,SE,135,4.0,-999.0,47,-99.99,,,-99.99,736.599976,,2013-05-18 18:52:00,
2013-05-18 15:00:00,79.0,56.0,-100.00,SSE,157,3.0,-999.0,46,-99.99,,,-99.99,653.080017,,2013-05-18 19:00:00,
2013-05-18 15:42:00,79.0,56.0,-100.00,SSE,157,3.0,-999.0,46,-99.99,,,-99.99,653.080017,,2013-05-18 19:42:00,
2013-05-18 15:52:00,79.0,56.0,-100.00,SSE,157,3.0,-999.0,46,-99.99,,,-99.99,653.080017,,2013-05-18 19:52:00,
2013-05-18 16:00:00,79.0,56.0,-100.00,SE,135,3.0,-999.0,46,-99.99,,,-99.99,250.559998,,2013-05-18 20:00:00,
2013-05-18 16:42:00,79.0,56.0,-100.00,SE,135,3.0,-999.0,46,-99.99,,,-99.99,250.559998,,2013-05-18 20:42:00,
2013-05-18 16:52:00,79.0,56.0,-100.00,SE,135,3.0,-999.0,46,-99.99,,,-99.99,250.559998,,2013-05-18 20:52:00,
2013-05-18 17:00:00,77.0,57.0,-100.00,SW,225,4.0,-999.0,49,-99.99,,,-99.99,175.160004,,2013-05-18 21:00:00,
2013-05-18 17:44:00,77.0,57.0,-100.00,SW,225,4.0,-999.0,49,-99.99,,,-99.99,175.160004,,2013-05-18 21:44:00,
2013-05-18 17:53:00,77.0,57.0,-100.00,SW,225,4.0,-999.0,49,-99.99,,,-99.99,175.160004,,2013-05-18 21:53:00,
2013-05-18 18:00:00,74.0,57.0,-100.00,WNW,292,5.0,-999.0,56,-99.99,,,-99.99,136.880005,,2013-05-18 22:00:00,
2013-05-18 18:42:00,74.0,57.0,-100.00,WNW,292,5.0,-999.0,56,-99.99,,,-99.99,136.880005,,2013-05-18 22:42:00,
2013-05-18 18:53:00,74.0,57.0,-100.00,WNW,292,5.0,-999.0,56,-99.99,,,-99.99,136.880005,,2013-05-18 22:53:00,
2013-05-18 21:00:00,71.0,61.0,-100.00,SSW,202,1.0,-999.0,70,-99.99,,,-99.99,35.959999,,2013-05-19 01:00:00,
2013-05-18 21:42:00,71.0,61.0,-100.00,SSW,202,1.0,-999.0,70,-99.99,,,-99.99,35.959999,,2013-05-19 01:42:00,
2013-05-18 21:52:00,71.0,61.0,-100.00,SSW,202,1.0,-999.0,70,-99.99,,,-99.99,35.959999,,2013-05-19 01:52:00,
2013-05-18 22:00:00,64.0,59.0,-100.00,NNE,22,1.0,-999.0,84,-99.99,,,-99.99,1.160000,,2013-05-19 02:00:00,
2013-05-18 22:42:00,64.0,59.0,-100.00,NNE,22,1.0,-999.0,84,-99.99,,,-99.99,1.160000,,2013-05-19 02:42:00,
2013-05-18 22:52:00,64.0,59.0,-100.00,NNE,22,1.0,-999.0,84,-99.99,,,-99.99,1.160000,,2013-05-19 02:52:00,
2013-05-18 23:00:00,61.0,58.0,-100.00,NNE,22,0.0,-999.0,91,-99.99,,,-99.99,0.000000,,2013-05-19 03:00:00,
2013-05-18 23:43:00,61.0,58.0,-100.00,NNE,22,0.0,-999.0,91,-99.99,,,-99.99,0.000000,,2013-05-19 03:43:00,
2013-05-18 23:53:00,61.0,58.0,-100.00,NNE,22,0.0,-999.0,91,-99.99,,,-99.99,0.000000,,2013-05-19 03:53:00,